createdAt,value
2022-10-29T00:00:16.021Z,30.55
2022-10-29T00:02:42.531Z,25.67
2022-10-29T00:05:09.363Z,21.20
2022-10-29T00:07:35.805Z,35.97
2022-10-29T00:10:02.480Z,20.55
2022-10-29T00:12:29.042Z,25.52
2022-10-29T00:14:55.524Z,30.42
2022-10-29T00:17:22.047Z,27.30
2022-10-29T00:19:48.966Z,26.02
2022-10-29T00:22:15.789Z,37.85
2022-10-29T00:24:42.281Z,30.60
2022-10-29T00:27:08.741Z,26.13
2022-10-29T00:29:35.176Z,28.55
2022-10-29T00:32:01.748Z,26.83
2022-10-29T00:34:29.140Z,27.30
2022-10-29T00:36:55.570Z,37.85
2022-10-29T00:39:22.004Z,35.80
2022-10-29T00:41:48.542Z,33.55
2022-10-29T00:44:14.894Z,34.90
2022-10-29T00:46:47.854Z,22.15
2022-10-29T00:49:16.829Z,18.00
2022-10-29T00:51:46.227Z,27.17
2022-10-29T00:54:16.812Z,33.03
2022-10-29T00:56:57.837Z,29.63
2022-10-29T00:59:25.155Z,21.77
2022-10-29T01:01:52.109Z,19.08
2022-10-29T01:04:20.656Z,18.95
2022-10-29T01:06:48.473Z,15.02
2022-10-29T01:09:14.943Z,30.05
2022-10-29T01:12:01.021Z,29.65
2022-10-29T01:15:12.961Z,31.08
2022-10-29T01:18:21.525Z,32.80
2022-10-29T01:21:27.918Z,44.85
2022-10-29T01:24:27.755Z,27.58
2022-10-29T01:27:24.654Z,28.80
2022-10-29T01:30:13.509Z,38.92
2022-10-29T01:32:56.035Z,40.85
2022-10-29T01:35:50.606Z,23.77
2022-10-29T01:38:29.522Z,44.05
2022-10-29T01:41:14.904Z,59.42
2022-10-29T01:44:11.777Z,44.33
2022-10-29T01:46:47.239Z,37.25
2022-10-29T01:49:22.790Z,31.58
2022-10-29T01:51:52.105Z,42.60
2022-10-29T01:54:18.533Z,21.77
2022-10-29T01:56:54.991Z,47.22
2022-10-29T01:59:35.641Z,30.98
2022-10-29T02:02:30.363Z,22.50
2022-10-29T02:07:49.513Z,25.15
2022-10-29T02:10:43.370Z,30.48
2022-10-29T02:13:16.751Z,43.60
2022-10-29T02:15:50.098Z,36.67
2022-10-29T02:18:17.853Z,23.70
2022-10-29T02:20:46.492Z,21.00
2022-10-29T02:23:15.564Z,39.17
2022-10-29T02:25:42.509Z,32.65
2022-10-29T02:28:09.081Z,40.50
2022-10-29T02:30:35.731Z,32.50
2022-10-29T02:33:02.168Z,28.63
2022-10-29T02:35:28.661Z,28.33
2022-10-29T02:37:55.103Z,26.55
2022-10-29T02:40:21.524Z,17.92
2022-10-29T02:42:47.980Z,25.20
2022-10-29T02:45:14.537Z,18.83
2022-10-29T02:47:40.952Z,22.60
2022-10-29T02:50:08.298Z,17.17
2022-10-29T02:52:34.704Z,14.48
2022-10-29T02:55:01.140Z,27.55
2022-10-29T02:57:27.574Z,30.38
2022-10-29T02:59:54.002Z,24.02
2022-10-29T03:02:20.544Z,14.38
2022-10-29T03:04:47.085Z,19.60
2022-10-29T03:07:13.521Z,38.85
2022-10-29T03:09:39.956Z,22.08
2022-10-29T03:12:06.890Z,33.22
2022-10-29T03:14:33.316Z,30.13
2022-10-29T03:16:59.789Z,27.13
2022-10-29T03:19:26.196Z,26.23
2022-10-29T03:21:52.664Z,29.63
2022-10-29T03:24:19.124Z,18.70
2022-10-29T03:26:45.560Z,25.20
2022-10-29T03:29:11.977Z,17.67
2022-10-29T03:31:38.410Z,43.63
2022-10-29T03:34:04.861Z,27.25
2022-10-29T03:36:31.368Z,23.95
2022-10-29T03:38:57.807Z,16.08
2022-10-29T03:41:24.253Z,19.60
2022-10-29T03:43:51.097Z,14.02
2022-10-29T03:46:17.661Z,15.00
2022-10-29T03:48:44.102Z,14.43
2022-10-29T03:51:10.742Z,18.45
2022-10-29T03:53:37.538Z,20.77
2022-10-29T03:56:04.861Z,31.02
2022-10-29T03:58:31.405Z,29.15
2022-10-29T04:01:10.139Z,21.98
2022-10-29T04:03:41.253Z,21.67
2022-10-29T04:06:14.497Z,30.00
2022-10-29T04:08:42.085Z,14.40
2022-10-29T04:11:13.596Z,34.00
2022-10-29T04:13:40.219Z,37.70
2022-10-29T04:16:07.072Z,21.38
2022-10-29T04:18:33.619Z,31.58
2022-10-29T04:26:48.111Z,17.38
2022-10-29T04:29:24.861Z,37.08
2022-10-29T04:31:51.295Z,28.58
2022-10-29T04:34:17.761Z,19.55
2022-10-29T04:36:44.214Z,23.77
2022-10-29T04:39:10.629Z,30.20
2022-10-29T04:41:37.077Z,20.25
2022-10-29T04:44:03.602Z,23.77
2022-10-29T04:46:30.062Z,34.47
2022-10-29T04:48:56.592Z,29.45
2022-10-29T04:51:26.036Z,30.02
2022-10-29T04:53:53.202Z,29.08
2022-10-29T04:56:19.781Z,30.52
2022-10-29T04:58:46.269Z,24.88
2022-10-29T05:01:12.948Z,30.23
2022-10-29T05:03:39.575Z,26.27
2022-10-29T05:06:06.630Z,19.75
2022-10-29T05:08:33.654Z,25.52
2022-10-29T05:11:06.736Z,27.38
2022-10-29T05:13:34.248Z,17.70
2022-10-29T05:16:01.052Z,31.45
2022-10-29T05:18:27.514Z,14.68
2022-10-29T05:20:55.698Z,28.42
2022-10-29T05:23:23.095Z,23.75
2022-10-29T05:25:51.886Z,20.00
2022-10-29T05:28:22.030Z,21.48
2022-10-29T05:30:50.815Z,20.48
2022-10-29T05:33:22.195Z,11.27
2022-10-29T05:35:48.728Z,14.25
2022-10-29T05:38:15.912Z,24.92
2022-10-29T05:40:44.898Z,16.73
2022-10-29T05:43:13.794Z,17.95
2022-10-29T05:45:41.527Z,17.10
2022-10-29T05:48:09.809Z,18.67
2022-10-29T05:50:36.531Z,19.00
2022-10-29T05:53:06.570Z,20.63
2022-10-29T05:55:35.123Z,30.60
2022-10-29T05:58:06.570Z,28.48
2022-10-29T06:00:37.362Z,28.83
2022-10-29T06:03:04.029Z,22.92
2022-10-29T06:05:30.543Z,17.10
2022-10-29T06:07:59.331Z,20.00
2022-10-29T06:10:29.007Z,17.48
2022-10-29T06:12:55.672Z,24.77
2022-10-29T06:15:22.828Z,22.05
2022-10-29T06:17:50.084Z,18.45
2022-10-29T06:20:20.854Z,20.17
2022-10-29T06:22:48.075Z,18.80
2022-10-29T06:25:14.541Z,18.67
2022-10-29T06:27:40.973Z,19.58
2022-10-29T06:30:08.461Z,24.48
2022-10-29T06:32:34.905Z,34.42
2022-10-29T06:35:01.346Z,20.85
2022-10-29T06:37:29.590Z,20.05
2022-10-29T06:39:56.079Z,18.48
2022-10-29T06:42:22.504Z,15.75
2022-10-29T06:44:48.921Z,24.00
2022-10-29T06:47:15.344Z,12.02
2022-10-29T06:49:41.785Z,27.75
2022-10-29T06:52:08.235Z,13.38
2022-10-29T06:54:34.765Z,18.20
2022-10-29T06:57:01.204Z,12.60
2022-10-29T06:59:27.620Z,18.48
2022-10-29T07:01:54.100Z,22.30
2022-10-29T07:04:21.105Z,15.05
2022-10-29T07:06:47.634Z,25.58
2022-10-29T07:09:14.207Z,26.40
2022-10-29T07:11:40.734Z,13.32
2022-10-29T07:14:09.619Z,18.27
2022-10-29T07:16:36.880Z,18.30
2022-10-29T07:19:04.677Z,17.85
2022-10-29T07:21:31.343Z,15.65
2022-10-29T07:23:57.786Z,14.68
2022-10-29T07:26:24.296Z,15.80
2022-10-29T07:28:50.769Z,20.63
2022-10-29T07:31:17.279Z,19.30
2022-10-29T07:33:43.813Z,31.27
2022-10-29T07:36:10.243Z,19.98
2022-10-29T07:38:36.690Z,14.85
2022-10-29T07:41:03.141Z,23.15
2022-10-29T07:43:29.569Z,20.42
2022-10-29T07:45:56.041Z,15.93
2022-10-29T07:48:22.637Z,23.15
2022-10-29T07:50:49.868Z,20.50
2022-10-29T07:53:16.524Z,26.77
2022-10-29T07:55:42.976Z,18.75
2022-10-29T07:58:12.355Z,19.30
2022-10-29T08:00:41.308Z,19.90
2022-10-29T08:03:07.903Z,13.70
2022-10-29T08:05:34.794Z,17.52
2022-10-29T08:08:01.332Z,16.50
2022-10-29T08:10:29.901Z,20.42
2022-10-29T08:12:59.974Z,15.48
2022-10-29T08:15:30.759Z,24.40
2022-10-29T08:17:58.277Z,17.10
2022-10-29T08:20:28.138Z,14.13
2022-10-29T08:22:55.164Z,13.65
2022-10-29T08:25:21.993Z,16.85
2022-10-29T08:28:05.513Z,15.50
2022-10-29T08:30:32.874Z,12.43
2022-10-29T08:33:00.295Z,19.60
2022-10-29T08:35:27.969Z,25.27
2022-10-29T08:37:54.534Z,18.67
2022-10-29T08:40:29.624Z,14.13
2022-10-29T08:43:36.295Z,23.17
2022-10-29T08:46:03.704Z,27.25
2022-10-29T08:48:58.145Z,25.45
2022-10-29T08:51:34.316Z,19.90
2022-10-29T08:54:25.614Z,15.27
2022-10-29T08:56:54.820Z,16.08
2022-10-29T08:59:24.829Z,23.35
2022-10-29T09:01:53.502Z,23.13
2022-10-29T09:04:32.936Z,18.77
2022-10-29T09:07:41.519Z,25.98
2022-10-29T09:10:23.090Z,25.83
2022-10-29T09:13:18.405Z,12.85
2022-10-29T09:16:27.979Z,24.75
2022-10-29T09:19:40.473Z,13.50
2022-10-29T09:22:24.537Z,20.73
2022-10-29T09:25:15.000Z,23.63
2022-10-29T09:28:25.649Z,16.63
2022-10-29T09:31:16.242Z,18.15
2022-10-29T09:33:48.186Z,18.25
2022-10-29T09:36:18.984Z,15.05
2022-10-29T09:39:04.156Z,21.73
2022-10-29T09:41:34.210Z,18.52
2022-10-29T09:44:33.417Z,21.42
2022-10-29T09:47:21.246Z,21.95
2022-10-29T09:50:08.697Z,24.55
2022-10-29T09:52:41.266Z,22.23
2022-10-29T09:55:23.065Z,20.55
2022-10-29T09:57:49.993Z,14.90
2022-10-29T10:00:29.936Z,27.63
2022-10-29T10:03:02.202Z,21.17
2022-10-29T10:05:34.625Z,16.17
2022-10-29T10:08:14.560Z,10.27
2022-10-29T10:11:05.054Z,18.38
2022-10-29T10:13:35.622Z,17.35
2022-10-29T10:16:06.017Z,15.18
2022-10-29T10:18:32.463Z,21.77
2022-10-29T10:21:23.661Z,17.92
2022-10-29T10:23:52.726Z,24.58
2022-10-29T10:26:42.843Z,27.48
2022-10-29T10:29:18.563Z,17.23
2022-10-29T10:31:55.211Z,23.17
2022-10-29T10:34:35.661Z,18.75
2022-10-29T10:37:17.272Z,27.15
2022-10-29T10:39:49.923Z,16.13
2022-10-29T10:42:32.328Z,13.52
2022-10-29T10:45:22.837Z,17.33
2022-10-29T10:47:57.309Z,15.57
2022-10-29T10:50:33.577Z,16.60
2022-10-29T10:53:06.604Z,12.65
2022-10-29T10:55:40.392Z,18.15
2022-10-29T10:58:29.471Z,14.07
2022-10-29T11:01:11.984Z,13.88
2022-10-29T11:03:47.100Z,11.13
2022-10-29T11:06:31.818Z,17.40
2022-10-29T11:09:32.003Z,21.92
2022-10-29T11:12:10.999Z,19.55
2022-10-29T11:14:52.579Z,13.07
2022-10-29T11:17:32.014Z,17.73
2022-10-29T11:20:23.743Z,19.08
2022-10-29T11:23:23.545Z,16.90
2022-10-29T11:26:22.088Z,11.75
2022-10-29T11:29:22.850Z,18.58
2022-10-29T11:32:20.642Z,12.68
2022-10-29T11:35:24.084Z,17.98
2022-10-29T11:38:05.941Z,20.77
2022-10-29T11:40:49.830Z,24.92
2022-10-29T11:43:20.905Z,17.95
2022-10-29T11:45:57.525Z,34.65
2022-10-29T11:48:58.094Z,19.88
2022-10-29T11:51:53.927Z,29.30
2022-10-29T11:54:41.321Z,34.20
2022-10-29T11:57:44.198Z,20.80
2022-10-29T12:00:22.155Z,26.73
2022-10-29T12:03:33.298Z,20.08
2022-10-29T12:06:32.507Z,24.90
2022-10-29T12:09:34.697Z,22.20
2022-10-29T12:12:21.373Z,22.42
2022-10-29T12:17:49.672Z,16.70
2022-10-29T12:20:29.425Z,15.02
2022-10-29T12:23:25.112Z,17.73
2022-10-29T12:26:24.274Z,29.40
2022-10-29T12:29:03.980Z,18.42
2022-10-29T12:32:14.104Z,18.33
2022-10-29T12:35:06.448Z,19.60
2022-10-29T12:38:23.434Z,18.13
2022-10-29T12:41:03.879Z,10.45
2022-10-29T12:43:36.313Z,20.70
2022-10-29T12:46:35.928Z,18.58
2022-10-29T12:49:56.558Z,20.48
2022-10-29T12:52:47.321Z,22.48
2022-10-29T12:55:16.949Z,23.80
2022-10-29T12:57:43.418Z,9.77
2022-10-29T13:00:30.902Z,14.20
2022-10-29T13:02:58.400Z,20.95
2022-10-29T13:05:34.277Z,39.53
2022-10-29T13:08:03.418Z,29.00
2022-10-29T13:10:32.866Z,28.65
2022-10-29T13:12:59.223Z,33.10
2022-10-29T13:15:49.257Z,55.60
2022-10-29T13:18:27.526Z,70.95
2022-10-29T13:20:55.395Z,38.30
2022-10-29T13:23:21.749Z,63.47
2022-10-29T13:26:53.898Z,76.10
2022-10-29T13:30:25.667Z,70.32
2022-10-29T13:32:56.084Z,74.88
2022-10-29T13:35:22.626Z,46.60
2022-10-29T13:38:13.416Z,56.58
2022-10-29T13:41:40.092Z,31.83
2022-10-29T13:44:14.455Z,48.75
2022-10-29T13:47:01.780Z,53.53
2022-10-29T13:49:37.007Z,71.43
2022-10-29T13:52:16.287Z,79.60
2022-10-29T13:55:01.099Z,83.40
2022-10-29T13:57:50.792Z,85.15
2022-10-29T14:00:20.830Z,59.47
2022-10-29T14:03:22.402Z,56.13
2022-10-29T14:06:08.925Z,70.00
2022-10-29T14:08:44.174Z,63.67
2022-10-29T14:11:25.219Z,61.28
2022-10-29T14:14:00.845Z,74.38
2022-10-29T14:16:32.455Z,67.65
2022-10-29T14:19:13.613Z,57.53
2022-10-29T14:21:40.962Z,51.85
2022-10-29T14:24:10.949Z,42.72
2022-10-29T14:26:42.318Z,49.13
2022-10-29T14:29:23.633Z,76.55
2022-10-29T14:32:15.452Z,48.38
2022-10-29T14:34:45.099Z,27.90
2022-10-29T14:37:41.216Z,51.30
2022-10-29T14:40:22.342Z,54.40
2022-10-29T14:42:56.416Z,48.65
2022-10-29T14:45:28.541Z,45.50
2022-10-29T14:48:05.288Z,40.60
2022-10-29T14:50:31.871Z,65.20
2022-10-29T14:53:03.712Z,58.40
2022-10-29T14:55:46.674Z,62.17
2022-10-29T14:58:20.830Z,81.88
2022-10-29T15:01:02.049Z,71.53
2022-10-29T15:03:33.989Z,77.95
2022-10-29T15:06:26.281Z,58.03
2022-10-29T15:08:58.807Z,48.10
2022-10-29T15:11:57.669Z,55.90
2022-10-29T15:15:27.171Z,56.15
2022-10-29T15:17:59.622Z,84.45
2022-10-29T15:20:40.776Z,58.15
2022-10-29T15:23:23.424Z,65.47
2022-10-29T15:25:58.074Z,79.60
2022-10-29T15:28:28.898Z,106.72
2022-10-29T15:30:55.679Z,43.03
2022-10-29T15:33:27.813Z,68.05
2022-10-29T15:35:59.746Z,68.22
2022-10-29T15:38:35.257Z,57.53
2022-10-29T15:41:07.758Z,75.63
2022-10-29T15:43:56.912Z,72.43
2022-10-29T15:46:48.025Z,53.40
2022-10-29T15:49:15.921Z,79.32
2022-10-29T15:51:42.809Z,69.03
2022-10-29T15:54:16.475Z,62.63
2022-10-29T15:56:43.121Z,90.10
2022-10-29T15:59:14.151Z,54.90
2022-10-29T16:01:41.026Z,75.78
2022-10-29T16:04:09.349Z,70.70
2022-10-29T16:06:36.111Z,46.38
2022-10-29T16:09:03.149Z,62.58
2022-10-29T16:11:29.660Z,78.85
2022-10-29T16:13:56.098Z,60.60
2022-10-29T16:16:25.128Z,73.53
2022-10-29T16:18:52.612Z,55.28
2022-10-29T16:21:22.968Z,64.28
2022-10-29T16:23:51.267Z,79.22
2022-10-29T16:26:21.626Z,58.30
2022-10-29T16:28:48.312Z,69.60
2022-10-29T16:31:29.636Z,52.58
2022-10-29T16:34:04.111Z,59.72
2022-10-29T16:36:30.556Z,48.47
2022-10-29T16:38:57.040Z,58.30
2022-10-29T16:41:23.582Z,71.60
2022-10-29T16:43:50.128Z,78.55
2022-10-29T16:46:17.075Z,50.85
2022-10-29T16:48:44.025Z,52.13
2022-10-29T16:51:10.581Z,54.17
2022-10-29T16:53:37.037Z,48.70
2022-10-29T16:56:04.538Z,70.68
2022-10-29T16:58:31.063Z,76.25
2022-10-29T17:01:06.645Z,41.17
2022-10-29T17:03:34.201Z,55.90
2022-10-29T17:06:08.115Z,55.58
2022-10-29T17:08:36.439Z,48.70
2022-10-29T17:11:06.306Z,61.00
2022-10-29T17:13:34.774Z,41.40
2022-10-29T17:16:05.599Z,27.85
2022-10-29T17:18:32.377Z,51.05
2022-10-29T17:21:01.156Z,50.63
2022-10-29T17:23:28.978Z,43.90
2022-10-29T17:25:57.933Z,44.55
2022-10-29T17:28:27.209Z,39.30
2022-10-29T17:30:54.019Z,45.22
2022-10-29T17:33:20.733Z,37.70
2022-10-29T17:35:47.644Z,59.63
2022-10-29T17:38:14.247Z,42.88
2022-10-29T17:40:44.252Z,47.95
2022-10-29T17:43:10.741Z,62.22
2022-10-29T17:45:37.223Z,55.33
2022-10-29T17:48:03.914Z,55.83
2022-10-29T17:50:30.410Z,60.90
2022-10-29T17:52:57.783Z,59.78
2022-10-29T17:55:24.510Z,43.72
2022-10-29T17:57:50.942Z,38.38
2022-10-29T18:00:17.763Z,65.30
2022-10-29T18:02:44.243Z,43.55
2022-10-29T18:05:10.810Z,39.28
2022-10-29T18:07:37.312Z,49.75
2022-10-29T18:10:04.310Z,46.47
2022-10-29T18:12:30.809Z,46.75
2022-10-29T18:14:57.270Z,41.88
2022-10-29T18:17:23.871Z,54.72
2022-10-29T18:19:50.330Z,43.83
2022-10-29T18:22:16.788Z,53.65
2022-10-29T18:24:43.221Z,62.03
2022-10-29T18:27:09.645Z,50.25
2022-10-29T18:29:36.137Z,44.97
2022-10-29T18:32:02.597Z,41.45
2022-10-29T18:34:29.170Z,35.35
2022-10-29T18:36:55.642Z,68.18
2022-10-29T18:39:22.102Z,41.63
2022-10-29T18:41:48.539Z,50.38
2022-10-29T18:44:14.985Z,48.10
2022-10-29T18:46:41.532Z,36.92
2022-10-29T18:49:12.890Z,54.58
2022-10-29T18:51:39.820Z,27.02
2022-10-29T18:54:06.277Z,37.85
2022-10-29T18:56:32.800Z,55.95
2022-10-29T18:59:00.387Z,50.85
2022-10-29T19:01:31.912Z,34.13
2022-10-29T19:04:05.681Z,21.83
2022-10-29T19:06:35.170Z,25.70
2022-10-29T19:09:06.731Z,21.33
2022-10-29T19:11:33.257Z,58.33
2022-10-29T19:14:03.095Z,57.50
2022-10-29T19:16:32.107Z,36.17
2022-10-29T19:19:03.023Z,32.45
2022-10-29T19:21:30.689Z,50.33
2022-10-29T19:23:59.705Z,55.10
2022-10-29T19:26:30.637Z,32.30
2022-10-29T19:29:00.839Z,30.98
2022-10-29T19:31:30.142Z,44.58
2022-10-29T19:34:00.471Z,24.02
2022-10-29T19:36:28.967Z,35.38
2022-10-29T19:38:56.424Z,23.02
2022-10-29T19:41:23.705Z,47.88
2022-10-29T19:43:50.468Z,30.70
2022-10-29T19:46:22.677Z,24.50
2022-10-29T19:48:52.618Z,35.35
2022-10-29T19:51:20.802Z,52.33
2022-10-29T19:53:47.892Z,47.58
2022-10-29T19:56:16.629Z,49.47
2022-10-29T19:58:44.033Z,46.25
2022-10-29T20:01:17.479Z,31.52
2022-10-29T20:03:45.720Z,26.45
2022-10-29T20:06:12.631Z,40.83
2022-10-29T20:08:39.209Z,34.40
2022-10-29T20:11:06.724Z,31.63
2022-10-29T20:13:33.781Z,36.05
2022-10-29T20:16:01.294Z,32.47
2022-10-29T20:18:27.809Z,35.42
2022-10-29T20:20:56.339Z,51.63
2022-10-29T20:23:25.491Z,39.38
2022-10-29T20:25:52.128Z,38.50
2022-10-29T20:28:18.631Z,33.25
2022-10-29T20:30:45.145Z,41.17
2022-10-29T20:33:11.610Z,37.08
2022-10-29T20:35:38.174Z,36.90
2022-10-29T20:38:05.720Z,38.55
2022-10-29T20:40:32.260Z,27.35
2022-10-29T20:42:58.730Z,30.20
2022-10-29T20:45:25.411Z,33.63
2022-10-29T20:47:51.855Z,31.33
2022-10-29T20:50:18.352Z,37.70
2022-10-29T20:52:48.626Z,45.78
2022-10-29T20:55:16.249Z,34.03
2022-10-29T20:57:42.760Z,35.15
2022-10-29T21:00:10.221Z,28.10
2022-10-29T21:02:36.750Z,26.00
2022-10-29T21:05:03.693Z,35.28
2022-10-29T21:07:30.112Z,25.40
2022-10-29T21:09:56.557Z,29.50
2022-10-29T21:12:23.030Z,32.08
2022-10-29T21:14:49.476Z,31.13
2022-10-29T21:17:15.964Z,47.42
2022-10-29T21:19:42.450Z,36.15
2022-10-29T21:22:08.964Z,35.10
2022-10-29T21:24:35.715Z,34.78
2022-10-29T21:27:02.298Z,26.83
2022-10-29T21:29:28.777Z,33.45
2022-10-29T21:31:55.222Z,32.95
2022-10-29T21:34:22.726Z,41.95
2022-10-29T21:36:49.561Z,30.60
2022-10-29T21:39:16.019Z,49.47
2022-10-29T21:41:42.476Z,35.95
2022-10-29T21:44:08.914Z,55.03
2022-10-29T21:46:35.413Z,34.45
2022-10-29T21:49:02.042Z,44.42
2022-10-29T21:51:28.461Z,33.85
2022-10-29T21:53:55.063Z,22.48
2022-10-29T21:56:21.568Z,26.80
2022-10-29T21:58:52.237Z,23.27
2022-10-29T22:01:18.929Z,31.25
2022-10-29T22:03:47.398Z,37.33
2022-10-29T22:06:23.035Z,34.35
2022-10-29T22:08:59.163Z,21.70
2022-10-29T22:11:28.464Z,14.05
2022-10-29T22:13:55.252Z,18.83
2022-10-29T22:16:22.033Z,31.58
2022-10-29T22:18:49.784Z,41.88
2022-10-29T22:21:21.324Z,51.88
2022-10-29T22:23:54.331Z,29.95
2022-10-29T22:26:25.701Z,30.95
2022-10-29T22:28:52.504Z,33.80
2022-10-29T22:31:21.896Z,29.52
2022-10-29T22:33:49.429Z,54.95
2022-10-29T22:36:22.610Z,37.42
2022-10-29T22:38:54.471Z,29.17
2022-10-29T22:41:21.078Z,27.65
2022-10-29T22:43:47.934Z,21.42
2022-10-29T22:46:16.874Z,19.33
2022-10-29T22:48:43.964Z,14.50
2022-10-29T22:51:18.967Z,26.80
2022-10-29T22:53:46.230Z,23.10
2022-10-29T22:56:29.170Z,24.70
2022-10-29T22:58:56.804Z,27.67
2022-10-29T23:01:28.103Z,29.50
2022-10-29T23:03:55.336Z,18.98
2022-10-29T23:06:24.123Z,26.13
2022-10-29T23:08:53.817Z,19.05
2022-10-29T23:11:26.968Z,25.33
2022-10-29T23:13:57.310Z,29.60
2022-10-29T23:16:27.278Z,45.90
2022-10-29T23:19:00.839Z,31.42
2022-10-29T23:21:28.224Z,52.60
2022-10-29T23:23:56.134Z,30.40
2022-10-29T23:26:24.972Z,25.83
2022-10-29T23:28:51.808Z,25.13
2022-10-29T23:31:22.539Z,39.35
2022-10-29T23:33:52.686Z,27.65
2022-10-29T23:36:22.727Z,30.23
2022-10-29T23:38:58.235Z,33.20
2022-10-29T23:41:26.420Z,26.23
2022-10-29T23:43:52.986Z,18.80
2022-10-29T23:46:19.648Z,41.63
2022-10-29T23:48:46.091Z,31.20
2022-10-29T23:51:12.558Z,29.45
2022-10-29T23:53:39.086Z,24.70
2022-10-29T23:56:05.937Z,13.93
2022-10-29T23:58:32.535Z,28.77
